Aérodrome :
LOGIN :

S'inscrire | Disclaimer

   EN    FR    IT 

 










Légende :    VFR   VFR Marginal   IFR   IFR Intensif   IFR Très Intensif
Visi : 
Plafond : 
>= 8 km
>= 3000ft
5 à 8 km
1000 à 3000 ft
1500m à 5 km
500 à 1000 ft
800 à 1500m
200 à 500 ft
< 800m
< 200 ft
Symboles :   Orages  Brouillard  Fortes neiges  Fortes précipitations  Vent > 20 kt
SIGMETs :   Divers  Orages  Givrage  Turbulence  Onde Orograph.  Cendres Volcan.






- Altitude de l'aérodrome : 17 ft
- Code IATA : KLR


ESMQ - Kalmar

DERNIER METAR :
  • 281520Z 12010KT 9999 -RA OVC008 13/12 Q1022

METARs EXPIRÉS :
  • 281450Z 12010KT 9999 SCT008 OVC010 14/12 Q1022
  • 281420Z 12008KT 9999 OVC011 14/12 Q1022
  • 281350Z 13009KT 9999 OVC011 14/12 Q1022
  • 281320Z 13010KT 9999 OVC011 14/12 Q1022
  • 281250Z 14010KT 9999 OVC013 14/12 Q1022

TAF TAF ESMQ
Valide du 28 à 15h jusqu'au 28 à 19h UTC


281430Z 2815/2819 14010KT 9999 OVC011
PROB40 2815/2819 RA BKN008



MET'MAP, la Météo Aéronautique d'un coup d'oeil ! - Copyright ORBIFLY Décembre 2007 - Disclaimer

ORBIFLY MET'MAP TEAM :

Programmation & Développement : Alexandra Zaïnal
Sur une idée originale de : Baudouin d'Aumeries
Assistance à la programmation : Marc-Olivier Méhu
Soutien technique & logistique : Manuel Goepfert

Contact : metmap@orbifly.com




SOURCES & CREDITS :

   NOAA